createdAt,value
2023-05-21T00:00:09.553Z,83.42
2023-05-21T00:01:09.478Z,83.42
2023-05-21T00:02:09.508Z,83.53
2023-05-21T00:03:09.574Z,83.42
2023-05-21T00:04:09.531Z,83.42
2023-05-21T00:05:10.253Z,83.32
2023-05-21T00:06:09.506Z,83.32
2023-05-21T00:07:09.424Z,83.32
2023-05-21T00:08:09.550Z,83.32
2023-05-21T00:09:09.475Z,83.42
2023-05-21T00:10:09.479Z,83.42
2023-05-21T00:11:09.377Z,83.42
2023-05-21T00:12:09.435Z,83.42
2023-05-21T00:13:09.376Z,83.42
2023-05-21T00:14:09.448Z,83.53
2023-05-21T00:15:09.557Z,83.53
2023-05-21T00:16:09.391Z,83.53
2023-05-21T00:17:09.317Z,83.53
2023-05-21T00:18:09.451Z,83.73
2023-05-21T00:19:09.456Z,83.76
2023-05-21T00:20:09.310Z,83.87
2023-05-21T00:21:09.309Z,83.97
2023-05-21T00:22:09.349Z,84.07
2023-05-21T00:23:09.245Z,84.07
2023-05-21T00:24:09.390Z,84.07
2023-05-21T00:25:09.264Z,83.97
2023-05-21T00:26:09.287Z,83.97
2023-05-21T00:27:09.221Z,83.87
2023-05-21T00:28:09.263Z,83.76
2023-05-21T00:29:09.204Z,83.73
2023-05-21T00:30:09.240Z,83.73
2023-05-21T00:31:09.271Z,83.76
2023-05-21T00:32:09.250Z,83.76
2023-05-21T00:33:09.223Z,83.73
2023-05-21T00:34:09.224Z,83.73
2023-05-21T00:35:09.135Z,83.87
2023-05-21T00:36:09.129Z,83.83
2023-05-21T00:37:09.093Z,83.83
2023-05-21T00:38:09.135Z,83.87
2023-05-21T00:39:09.241Z,83.83
2023-05-21T00:40:09.115Z,83.73
2023-05-21T00:41:09.107Z,83.73
2023-05-21T00:42:09.076Z,83.73
2023-05-21T00:43:09.048Z,83.73
2023-05-21T00:44:09.121Z,83.73
2023-05-21T00:45:09.047Z,83.73
2023-05-21T00:46:09.111Z,83.73
2023-05-21T00:47:08.995Z,83.73
2023-05-21T00:48:09.338Z,83.73
2023-05-21T00:49:09.055Z,83.83
2023-05-21T00:50:16.574Z,83.73
2023-05-21T00:51:08.978Z,83.73
2023-05-21T00:52:15.723Z,83.73
2023-05-21T00:53:09.036Z,83.73
2023-05-21T00:54:08.983Z,83.62
2023-05-21T00:55:08.900Z,83.62
2023-05-21T00:56:08.944Z,83.62
2023-05-21T00:57:08.911Z,83.83
2023-05-21T00:58:08.881Z,83.73
2023-05-21T00:59:08.895Z,83.83
2023-05-21T01:00:08.977Z,83.83
2023-05-21T01:01:08.909Z,83.73
2023-05-21T01:02:08.889Z,83.83
2023-05-21T01:03:08.951Z,83.83
2023-05-21T01:04:08.888Z,83.83
2023-05-21T01:05:08.855Z,84.07
2023-05-21T01:06:08.820Z,84.17
2023-05-21T01:07:08.813Z,84.28
2023-05-21T01:08:08.821Z,84.38
2023-05-21T01:09:08.825Z,84.38
2023-05-21T01:10:08.847Z,84.48
2023-05-21T01:11:08.787Z,84.48
2023-05-21T01:12:08.755Z,84.38
2023-05-21T01:13:08.790Z,84.38
2023-05-21T01:14:08.738Z,84.38
2023-05-21T01:15:08.869Z,84.48
2023-05-21T01:16:08.941Z,84.48
2023-05-21T01:17:08.766Z,84.58
2023-05-21T01:18:08.740Z,84.78
2023-05-21T01:19:08.932Z,84.78
2023-05-21T01:20:09.268Z,84.68
2023-05-21T01:21:08.649Z,84.68
2023-05-21T01:22:08.720Z,84.58
2023-05-21T01:23:08.632Z,84.58
2023-05-21T01:24:08.620Z,84.48
2023-05-21T01:25:08.648Z,84.48
2023-05-21T01:26:08.626Z,84.48
2023-05-21T01:27:08.701Z,84.48
2023-05-21T01:28:08.549Z,84.48
2023-05-21T01:29:08.566Z,84.48
2023-05-21T01:30:08.570Z,84.48
2023-05-21T01:31:08.560Z,84.48
2023-05-21T01:32:08.519Z,84.48
2023-05-21T01:33:08.613Z,84.58
2023-05-21T01:34:08.541Z,84.68
2023-05-21T01:35:08.808Z,84.78
2023-05-21T01:36:08.504Z,84.78
2023-05-21T01:37:08.490Z,84.78
2023-05-21T01:38:08.461Z,84.88
2023-05-21T01:39:08.568Z,84.88
2023-05-21T01:40:08.429Z,84.88
2023-05-21T01:41:08.593Z,84.99
2023-05-21T01:42:08.406Z,85.23
2023-05-21T01:43:08.431Z,85.33
2023-05-21T01:44:08.521Z,85.53
2023-05-21T01:45:08.455Z,85.64
2023-05-21T01:46:08.410Z,85.64
2023-05-21T01:47:08.406Z,85.64
2023-05-21T01:48:08.449Z,85.64
2023-05-21T01:49:08.378Z,85.74
2023-05-21T01:50:08.351Z,85.74
2023-05-21T01:51:14.364Z,85.74
2023-05-21T01:52:08.336Z,85.64
2023-05-21T01:53:08.339Z,85.64
2023-05-21T01:54:08.279Z,85.74
2023-05-21T01:55:08.300Z,85.74
2023-05-21T01:56:08.319Z,85.74
2023-05-21T01:57:08.291Z,85.64
2023-05-21T01:58:08.249Z,85.64
2023-05-21T01:59:08.329Z,85.64
2023-05-21T02:00:08.233Z,85.64
2023-05-21T02:01:08.237Z,85.64
2023-05-21T02:02:08.264Z,85.64
2023-05-21T02:03:08.319Z,85.74
2023-05-21T02:04:08.493Z,85.84
2023-05-21T02:05:08.192Z,85.94
2023-05-21T02:06:08.153Z,86.04
2023-05-21T02:07:08.169Z,86.15
2023-05-21T02:08:08.139Z,86.25
2023-05-21T02:09:08.187Z,86.25
2023-05-21T02:10:08.123Z,86.25
2023-05-21T02:11:08.185Z,86.25
2023-05-21T02:12:08.097Z,86.25
2023-05-21T02:13:08.209Z,86.25
2023-05-21T02:14:08.073Z,86.25
2023-05-21T02:15:08.100Z,86.15
2023-05-21T02:16:08.078Z,86.25
2023-05-21T02:17:08.146Z,86.35
2023-05-21T02:18:08.084Z,86.45
2023-05-21T02:19:08.163Z,86.45
2023-05-21T02:20:08.005Z,86.55
2023-05-21T02:21:08.017Z,86.65
2023-05-21T02:22:08.012Z,86.76
2023-05-21T02:23:08.002Z,86.76
2023-05-21T02:24:08.270Z,86.65
2023-05-21T02:25:08.006Z,86.76
2023-05-21T02:26:07.967Z,86.76
2023-05-21T02:27:07.988Z,86.90
2023-05-21T02:28:07.970Z,87.00
2023-05-21T02:29:07.952Z,86.96
2023-05-21T02:30:07.993Z,87.00
2023-05-21T02:31:07.952Z,86.96
2023-05-21T02:32:07.905Z,87.16
2023-05-21T02:33:07.943Z,87.06
2023-05-21T02:34:07.879Z,87.06
2023-05-21T02:35:07.897Z,87.06
2023-05-21T02:36:07.878Z,87.06
2023-05-21T02:37:07.875Z,87.06
2023-05-21T02:38:07.848Z,87.16
2023-05-21T02:39:07.839Z,87.20
2023-05-21T02:40:07.804Z,87.16
2023-05-21T02:41:07.838Z,87.16
2023-05-21T02:42:07.799Z,87.16
2023-05-21T02:43:07.806Z,87.06
2023-05-21T02:44:07.753Z,86.96
2023-05-21T02:45:07.797Z,87.06
2023-05-21T02:46:07.976Z,87.06
2023-05-21T02:47:07.749Z,87.06
2023-05-21T02:48:07.790Z,87.20
2023-05-21T02:49:07.736Z,87.30
2023-05-21T02:50:07.706Z,87.30
2023-05-21T02:51:07.699Z,87.51
2023-05-21T02:52:07.720Z,87.71
2023-05-21T02:53:07.694Z,87.71
2023-05-21T02:54:07.675Z,87.71
2023-05-21T02:55:07.707Z,87.71
2023-05-21T02:56:07.634Z,87.81
2023-05-21T02:57:07.662Z,87.81
2023-05-21T02:58:07.578Z,87.71
2023-05-21T02:59:07.636Z,87.81
2023-05-21T03:00:07.605Z,87.81
2023-05-21T03:01:07.639Z,87.81
2023-05-21T03:02:07.552Z,87.81
2023-05-21T03:03:07.706Z,87.81
2023-05-21T03:04:07.544Z,87.92
2023-05-21T03:05:07.537Z,87.92
2023-05-21T03:06:07.460Z,87.92
2023-05-21T03:07:07.495Z,87.92
2023-05-21T03:08:07.438Z,87.92
2023-05-21T03:09:07.508Z,87.92
2023-05-21T03:10:07.436Z,87.92
2023-05-21T03:11:07.475Z,87.81
2023-05-21T03:12:07.419Z,87.81
2023-05-21T03:13:09.713Z,87.81
2023-05-21T03:14:12.888Z,87.81
2023-05-21T03:15:07.413Z,87.81
2023-05-21T03:16:07.395Z,87.81
2023-05-21T03:17:07.520Z,87.81
2023-05-21T03:18:07.418Z,87.71
2023-05-21T03:19:07.412Z,87.92
2023-05-21T03:20:07.344Z,87.92
2023-05-21T03:21:07.352Z,87.92
2023-05-21T03:22:07.300Z,87.92
2023-05-21T03:23:07.332Z,87.92
2023-05-21T03:24:07.275Z,87.92
2023-05-21T03:25:07.297Z,87.92
2023-05-21T03:26:07.246Z,87.92
2023-05-21T03:27:07.302Z,87.92
2023-05-21T03:28:07.261Z,87.92
2023-05-21T03:29:07.271Z,87.92
2023-05-21T03:30:07.194Z,88.12
2023-05-21T03:31:07.222Z,88.12
2023-05-21T03:32:07.237Z,88.12
2023-05-21T03:33:07.267Z,88.12
2023-05-21T03:34:07.202Z,88.12
2023-05-21T03:35:07.207Z,88.12
2023-05-21T03:36:07.155Z,88.22
2023-05-21T03:37:07.159Z,88.22
2023-05-21T03:38:07.145Z,88.46
2023-05-21T03:39:07.166Z,88.57
2023-05-21T03:40:07.116Z,88.57
2023-05-21T03:41:07.138Z,88.57
2023-05-21T03:42:07.118Z,88.46
2023-05-21T03:43:07.086Z,88.46
2023-05-21T03:44:07.079Z,88.67
2023-05-21T03:45:07.102Z,88.77
2023-05-21T03:46:07.097Z,88.67
2023-05-21T03:47:07.062Z,88.77
2023-05-21T03:48:17.798Z,88.87
2023-05-21T03:49:07.042Z,88.87
2023-05-21T03:50:07.018Z,89.07
2023-05-21T03:51:07.016Z,89.07
2023-05-21T03:52:07.016Z,89.07
2023-05-21T03:53:06.993Z,89.07
2023-05-21T03:54:07.028Z,89.07
2023-05-21T03:55:06.981Z,89.18
2023-05-21T03:56:07.028Z,89.18
2023-05-21T03:57:06.934Z,89.28
2023-05-21T03:58:06.934Z,89.28
2023-05-21T03:59:06.924Z,89.18
2023-05-21T04:00:06.958Z,89.07
2023-05-21T04:01:06.883Z,88.98
2023-05-21T04:02:12.928Z,89.07
2023-05-21T04:03:07.030Z,89.07
2023-05-21T04:04:07.060Z,89.07
2023-05-21T04:05:06.863Z,89.07
2023-05-21T04:06:06.885Z,88.98
2023-05-21T04:07:06.817Z,88.98
2023-05-21T04:08:06.832Z,88.87
2023-05-21T04:09:06.815Z,88.77
2023-05-21T04:10:06.817Z,88.77
2023-05-21T04:11:06.817Z,88.87
2023-05-21T04:12:06.800Z,89.07
2023-05-21T04:13:06.753Z,89.07
2023-05-21T04:14:06.807Z,88.98
2023-05-21T04:15:06.763Z,88.87
2023-05-21T04:16:06.760Z,88.98
2023-05-21T04:17:06.737Z,89.18
2023-05-21T04:18:06.797Z,89.28
2023-05-21T04:19:06.722Z,89.28
2023-05-21T04:20:06.705Z,89.18
2023-05-21T04:21:06.669Z,89.07
2023-05-21T04:22:06.676Z,88.93
2023-05-21T04:23:06.669Z,88.83
2023-05-21T04:24:06.671Z,88.73
2023-05-21T04:25:06.626Z,88.53
2023-05-21T04:26:06.641Z,88.53
2023-05-21T04:27:06.638Z,88.53
2023-05-21T04:28:06.654Z,88.53
2023-05-21T04:29:06.602Z,88.63
2023-05-21T04:30:06.650Z,88.53
2023-05-21T04:31:06.623Z,88.53
2023-05-21T04:32:06.620Z,88.63
2023-05-21T04:33:06.661Z,88.63
2023-05-21T04:34:06.605Z,88.53
2023-05-21T04:35:06.535Z,88.53
2023-05-21T04:36:06.554Z,88.63
2023-05-21T04:37:06.511Z,88.53
2023-05-21T04:38:06.541Z,88.53
2023-05-21T04:39:06.492Z,88.42
2023-05-21T04:40:06.498Z,88.32
2023-05-21T04:41:09.280Z,88.28
2023-05-21T04:42:06.500Z,88.18
2023-05-21T04:43:06.493Z,88.18
2023-05-21T04:44:06.496Z,88.08
2023-05-21T04:45:06.417Z,88.18
2023-05-21T04:46:06.459Z,88.18
2023-05-21T04:47:06.484Z,88.18
2023-05-21T04:48:06.438Z,88.18
2023-05-21T04:49:06.422Z,88.08
2023-05-21T04:50:06.391Z,87.98
2023-05-21T04:51:06.361Z,87.98
2023-05-21T04:52:06.369Z,87.98
2023-05-21T04:53:06.363Z,88.08
2023-05-21T04:54:06.373Z,88.08
2023-05-21T04:55:06.303Z,88.08
2023-05-21T04:56:06.324Z,88.08
2023-05-21T04:57:06.477Z,88.18
2023-05-21T04:58:06.298Z,88.18
2023-05-21T04:59:06.289Z,88.08
2023-05-21T05:00:06.867Z,88.08
2023-05-21T05:01:06.381Z,87.98
2023-05-21T05:02:06.261Z,87.98
2023-05-21T05:03:06.307Z,88.18
2023-05-21T05:04:06.304Z,88.08
2023-05-21T05:05:06.219Z,87.87
2023-05-21T05:06:06.238Z,87.87
2023-05-21T05:07:06.253Z,87.77
2023-05-21T05:08:06.205Z,87.67
2023-05-21T05:09:06.198Z,87.84
2023-05-21T05:10:06.256Z,87.73
2023-05-21T05:11:06.169Z,87.63
2023-05-21T05:12:06.216Z,87.73
2023-05-21T05:13:06.128Z,87.63
2023-05-21T05:14:06.139Z,87.73
2023-05-21T05:15:06.094Z,87.73
2023-05-21T05:16:06.186Z,87.53
2023-05-21T05:17:06.096Z,87.73
2023-05-21T05:18:06.146Z,87.98
2023-05-21T05:19:06.161Z,88.08
2023-05-21T05:20:06.077Z,88.28
2023-05-21T05:21:06.072Z,88.18
2023-05-21T05:22:06.078Z,88.28
2023-05-21T05:23:06.045Z,88.18
2023-05-21T05:24:06.061Z,88.04
2023-05-21T05:25:06.066Z,88.04
2023-05-21T05:26:06.015Z,88.08
2023-05-21T05:27:05.974Z,88.08
2023-05-21T05:28:06.062Z,88.04
2023-05-21T05:29:05.989Z,88.04
2023-05-21T05:30:05.971Z,87.93
2023-05-21T05:31:05.959Z,88.04
2023-05-21T05:32:05.937Z,87.93
2023-05-21T05:33:05.992Z,87.93
2023-05-21T05:34:05.995Z,87.93
2023-05-21T05:35:05.914Z,87.84
2023-05-21T05:36:05.913Z,87.84
2023-05-21T05:37:05.908Z,87.84
2023-05-21T05:38:05.891Z,87.73
2023-05-21T05:39:05.852Z,87.73
2023-05-21T05:40:05.873Z,87.63
2023-05-21T05:41:05.830Z,87.69
2023-05-21T05:42:05.865Z,87.63
2023-05-21T05:43:05.803Z,87.84
2023-05-21T05:44:05.814Z,87.73
2023-05-21T05:45:05.770Z,87.69
2023-05-21T05:46:05.835Z,87.69
2023-05-21T05:47:05.829Z,87.49
2023-05-21T05:48:05.844Z,87.38
2023-05-21T05:49:05.759Z,87.18
2023-05-21T05:50:05.820Z,87.18
2023-05-21T05:51:05.717Z,86.94
2023-05-21T05:52:05.742Z,86.74
2023-05-21T05:53:06.175Z,86.53
2023-05-21T05:54:05.725Z,86.74
2023-05-21T05:55:05.664Z,86.43
2023-05-21T05:56:05.938Z,86.43
2023-05-21T05:57:05.662Z,86.33
2023-05-21T05:58:05.686Z,85.98
2023-05-21T05:59:05.657Z,85.98
2023-05-21T06:00:05.673Z,85.78
2023-05-21T06:01:05.649Z,85.58
2023-05-21T06:02:05.630Z,85.68
2023-05-21T06:03:05.680Z,85.58
2023-05-21T06:04:05.641Z,85.58
2023-05-21T06:05:05.565Z,85.78
2023-05-21T06:06:05.610Z,85.58
2023-05-21T06:07:05.539Z,85.58
2023-05-21T06:08:05.552Z,85.38
2023-05-21T06:09:13.299Z,85.03
2023-05-21T06:10:05.549Z,85.03
2023-05-21T06:11:05.535Z,84.72
2023-05-21T06:12:05.522Z,84.72
2023-05-21T06:13:05.526Z,84.52
2023-05-21T06:14:05.505Z,84.22
2023-05-21T06:15:05.449Z,84.22
2023-05-21T06:16:05.530Z,84.22
2023-05-21T06:17:06.408Z,84.42
2023-05-21T06:18:05.506Z,84.32
2023-05-21T06:19:05.550Z,84.12
2023-05-21T06:20:05.434Z,84.32
2023-05-21T06:21:05.447Z,84.18
2023-05-21T06:22:05.421Z,84.12
2023-05-21T06:23:05.369Z,84.22
2023-05-21T06:24:07.387Z,84.22
2023-05-21T06:25:05.353Z,84.38
2023-05-21T06:26:05.410Z,84.08
2023-05-21T06:27:05.331Z,83.87
2023-05-21T06:28:05.402Z,83.87
2023-05-21T06:29:05.353Z,83.67
2023-05-21T06:30:05.371Z,83.47
2023-05-21T06:31:05.297Z,83.47
2023-05-21T06:32:05.298Z,83.57
2023-05-21T06:33:13.802Z,83.77
2023-05-21T06:34:05.508Z,83.77
2023-05-21T06:35:05.278Z,83.67
2023-05-21T06:36:05.284Z,83.87
2023-05-21T06:37:05.219Z,83.98
2023-05-21T06:38:05.249Z,83.98
2023-05-21T06:39:05.200Z,83.98
2023-05-21T06:40:12.928Z,83.98
2023-05-21T06:41:05.195Z,84.04
2023-05-21T06:42:05.213Z,83.53
2023-05-21T06:43:05.214Z,83.63
2023-05-21T06:44:05.176Z,83.43
2023-05-21T06:45:05.242Z,83.33
2023-05-21T06:46:05.192Z,83.53
2023-05-21T06:47:05.131Z,83.23
2023-05-21T06:48:05.202Z,83.03
2023-05-21T06:49:05.108Z,83.12
2023-05-21T06:50:05.145Z,83.33
2023-05-21T06:51:05.093Z,83.43
2023-05-21T06:52:05.106Z,83.33
2023-05-21T06:53:05.081Z,83.12
2023-05-21T06:54:05.094Z,82.92
2023-05-21T06:55:05.033Z,82.82
2023-05-21T06:56:05.050Z,82.82
2023-05-21T06:57:05.010Z,82.92
2023-05-21T06:58:05.025Z,83.03
2023-05-21T06:59:05.028Z,82.98
2023-05-21T07:00:05.024Z,82.68
2023-05-21T07:01:05.081Z,82.28
2023-05-21T07:02:05.024Z,82.72
2023-05-21T07:03:05.404Z,82.98
2023-05-21T07:04:04.960Z,82.78
2023-05-21T07:05:04.990Z,82.68
2023-05-21T07:06:04.961Z,82.58
2023-05-21T07:07:05.025Z,82.48
2023-05-21T07:08:04.915Z,82.03
2023-05-21T07:09:04.883Z,81.73
2023-05-21T07:10:04.920Z,81.63
2023-05-21T07:11:04.882Z,81.32
2023-05-21T07:12:04.889Z,81.32
2023-05-21T07:13:04.832Z,81.43
2023-05-21T07:14:04.865Z,81.73
2023-05-21T07:15:04.867Z,81.39
2023-05-21T07:16:04.847Z,81.32
2023-05-21T07:17:05.083Z,81.32
2023-05-21T07:18:04.875Z,81.79
2023-05-21T07:19:04.811Z,80.98
2023-05-21T07:20:04.782Z,80.98
2023-05-21T07:21:04.762Z,80.88
2023-05-21T07:22:05.348Z,80.84
2023-05-21T07:23:04.730Z,80.44
2023-05-21T07:24:04.749Z,80.13
2023-05-21T07:25:04.746Z,80.04
2023-05-21T07:26:04.823Z,79.83
2023-05-21T07:27:14.335Z,79.83
2023-05-21T07:28:06.535Z,79.83
2023-05-21T07:29:04.693Z,79.69
2023-05-21T07:30:04.687Z,79.59
2023-05-21T07:31:04.690Z,79.59
2023-05-21T07:32:04.658Z,78.99
2023-05-21T07:33:04.662Z,79.19
2023-05-21T07:34:04.677Z,79.29
2023-05-21T07:35:04.630Z,79.29
2023-05-21T07:36:04.646Z,79.39
2023-05-21T07:37:04.620Z,79.19
2023-05-21T07:38:04.625Z,78.64
2023-05-21T07:39:04.599Z,78.34
2023-05-21T07:40:04.612Z,78.34
2023-05-21T07:41:04.554Z,78.24
2023-05-21T07:42:04.568Z,78.10
2023-05-21T07:43:04.523Z,78.34
2023-05-21T07:44:04.633Z,77.94
2023-05-21T07:45:04.512Z,77.94
2023-05-21T07:46:19.381Z,78.04
2023-05-21T07:47:04.527Z,77.90
2023-05-21T07:48:04.536Z,77.94
2023-05-21T07:49:04.455Z,77.80
2023-05-21T07:50:19.360Z,77.90
2023-05-21T07:51:04.450Z,77.80
2023-05-21T07:52:04.501Z,78.00
2023-05-21T07:53:04.487Z,78.00
2023-05-21T07:54:04.429Z,77.70
2023-05-21T07:55:04.430Z,77.46
2023-05-21T07:56:04.411Z,77.36
2023-05-21T07:57:04.367Z,77.46
2023-05-21T07:58:04.417Z,76.95
2023-05-21T07:59:04.406Z,77.06
2023-05-21T08:00:04.425Z,77.15
2023-05-21T08:01:04.330Z,77.19
2023-05-21T08:02:04.353Z,77.39
2023-05-21T08:03:04.405Z,77.90
2023-05-21T08:04:04.620Z,77.86
2023-05-21T08:05:04.328Z,77.36
2023-05-21T08:06:04.339Z,76.92
2023-05-21T08:07:04.258Z,76.82
2023-05-21T08:08:04.249Z,76.72
2023-05-21T08:09:04.285Z,76.42
2023-05-21T08:10:04.281Z,76.51
2023-05-21T08:11:04.256Z,76.42
2023-05-21T08:12:04.210Z,76.31
2023-05-21T08:13:04.221Z,76.11
2023-05-21T08:14:04.221Z,76.42
2023-05-21T08:15:04.277Z,76.72
2023-05-21T08:16:04.219Z,76.62
2023-05-21T08:17:04.203Z,76.92
2023-05-21T08:18:04.200Z,76.82
2023-05-21T08:19:04.211Z,76.68
2023-05-21T08:20:04.187Z,76.58
2023-05-21T08:21:04.165Z,76.48
2023-05-21T08:22:04.111Z,76.82
2023-05-21T08:23:04.129Z,76.48
2023-05-21T08:24:04.084Z,76.68
2023-05-21T08:25:04.130Z,76.28
2023-05-21T08:26:04.062Z,76.04
2023-05-21T08:27:04.088Z,75.74
2023-05-21T08:28:04.057Z,75.43
2023-05-21T08:29:04.059Z,75.34
2023-05-21T08:30:04.045Z,75.23
2023-05-21T08:31:04.073Z,74.99
2023-05-21T08:32:04.026Z,74.69
2023-05-21T08:33:04.064Z,74.69
2023-05-21T08:34:03.996Z,74.39
2023-05-21T08:35:03.987Z,74.15
2023-05-21T08:36:04.004Z,73.75
2023-05-21T08:37:03.972Z,73.52
2023-05-21T08:38:03.935Z,73.11
2023-05-21T08:39:03.939Z,72.77
2023-05-21T08:40:03.920Z,72.47
2023-05-21T08:41:03.962Z,72.37
2023-05-21T08:42:03.880Z,72.57
2023-05-21T08:43:03.964Z,72.77
2023-05-21T08:44:03.867Z,72.37
2023-05-21T08:45:03.882Z,73.11
2023-05-21T08:46:03.909Z,73.01
2023-05-21T08:47:03.877Z,72.97
2023-05-21T08:48:03.951Z,72.47
2023-05-21T08:49:03.866Z,73.32
2023-05-21T08:50:03.816Z,73.11
2023-05-21T08:51:03.814Z,73.52
2023-05-21T08:52:03.877Z,73.11
2023-05-21T08:53:07.582Z,72.97
2023-05-21T08:54:03.797Z,72.57
2023-05-21T08:55:03.846Z,72.57
2023-05-21T08:56:03.747Z,72.67
2023-05-21T08:57:03.769Z,72.67
2023-05-21T08:58:03.718Z,72.67
2023-05-21T08:59:03.778Z,72.44
2023-05-21T09:00:03.718Z,72.34
2023-05-21T09:01:03.762Z,72.24
2023-05-21T09:02:03.694Z,72.14
2023-05-21T09:03:03.796Z,72.14
2023-05-21T09:04:19.017Z,71.94
2023-05-21T09:05:03.704Z,71.94
2023-05-21T09:06:03.652Z,72.14
2023-05-21T09:07:03.667Z,71.80
2023-05-21T09:08:03.638Z,71.90
2023-05-21T09:09:03.647Z,72.10
2023-05-21T09:10:03.586Z,72.10
2023-05-21T09:11:03.648Z,72.00
2023-05-21T09:12:03.571Z,72.00
2023-05-21T09:13:03.607Z,72.00
2023-05-21T09:14:03.603Z,71.80
2023-05-21T09:15:03.566Z,71.60
2023-05-21T09:16:03.540Z,71.70
2023-05-21T09:17:03.637Z,71.80
2023-05-21T09:18:03.609Z,71.80
2023-05-21T09:19:04.741Z,71.60
2023-05-21T09:20:03.493Z,71.70
2023-05-21T09:21:03.521Z,72.07
2023-05-21T09:22:03.483Z,71.56
2023-05-21T09:23:03.581Z,71.16
2023-05-21T09:24:03.458Z,71.26
2023-05-21T09:25:03.469Z,70.86
2023-05-21T09:26:03.425Z,70.56
2023-05-21T09:27:03.445Z,70.43
2023-05-21T09:28:03.461Z,70.53
2023-05-21T09:29:03.481Z,70.53
2023-05-21T09:30:03.409Z,70.93
2023-05-21T09:31:03.451Z,70.53
2023-05-21T09:32:03.374Z,70.63
2023-05-21T09:33:03.656Z,70.03
2023-05-21T09:34:03.375Z,70.12
2023-05-21T09:35:03.356Z,69.72
2023-05-21T09:36:03.329Z,69.62
2023-05-21T09:37:04.958Z,69.89
2023-05-21T09:38:03.321Z,69.69
2023-05-21T09:39:03.358Z,69.39
2023-05-21T09:40:03.284Z,69.29
2023-05-21T09:41:03.306Z,69.69
2023-05-21T09:42:03.307Z,69.35
2023-05-21T09:43:03.306Z,69.06
2023-05-21T09:44:03.281Z,68.55
2023-05-21T09:45:03.255Z,69.56
2023-05-21T09:46:03.268Z,68.76
2023-05-21T09:47:03.253Z,69.02
2023-05-21T09:48:03.236Z,68.32
2023-05-21T09:49:03.271Z,68.32
2023-05-21T09:50:03.201Z,68.32
2023-05-21T09:51:03.219Z,68.12
2023-05-21T09:52:03.223Z,68.32
2023-05-21T09:53:03.187Z,67.82
2023-05-21T09:54:03.177Z,67.61
2023-05-21T09:55:03.167Z,66.99
2023-05-21T09:56:03.136Z,67.08
2023-05-21T09:57:03.137Z,66.78
2023-05-21T09:58:03.203Z,66.48
2023-05-21T09:59:03.128Z,66.38
2023-05-21T10:00:03.096Z,66.48
2023-05-21T10:01:03.113Z,66.85
2023-05-21T10:02:03.202Z,66.15
2023-05-21T10:03:03.154Z,66.35
2023-05-21T10:04:03.132Z,65.65
2023-05-21T10:05:03.146Z,65.55
2023-05-21T10:06:03.034Z,65.72
2023-05-21T10:07:03.042Z,65.31
2023-05-21T10:08:03.036Z,65.42
2023-05-21T10:09:05.638Z,65.52
2023-05-21T10:10:03.039Z,65.62
2023-05-21T10:11:03.024Z,65.85
2023-05-21T10:12:02.967Z,66.85
2023-05-21T10:13:02.981Z,66.35
2023-05-21T10:14:03.008Z,66.25
2023-05-21T10:15:02.971Z,67.15
2023-05-21T10:16:03.025Z,66.22
2023-05-21T10:17:02.939Z,65.62
2023-05-21T10:18:02.996Z,65.82
2023-05-21T10:19:02.945Z,66.25
2023-05-21T10:20:02.923Z,66.25
2023-05-21T10:21:02.903Z,65.85
2023-05-21T10:22:02.911Z,66.15
2023-05-21T10:23:02.872Z,66.05
2023-05-21T10:24:02.843Z,66.45
2023-05-21T10:25:02.848Z,66.15
2023-05-21T10:26:02.807Z,66.42
2023-05-21T10:27:02.908Z,65.22
2023-05-21T10:28:02.792Z,64.92
2023-05-21T10:29:23.520Z,64.72
2023-05-21T10:30:02.814Z,65.01
2023-05-21T10:31:02.804Z,64.42
2023-05-21T10:32:02.802Z,64.01
2023-05-21T10:33:02.880Z,64.39
2023-05-21T10:34:02.733Z,64.18
2023-05-21T10:35:02.812Z,63.89
2023-05-21T10:36:02.730Z,63.89
2023-05-21T10:37:02.734Z,63.56
2023-05-21T10:38:02.714Z,63.45
2023-05-21T10:39:02.730Z,63.25
2023-05-21T10:40:02.690Z,63.32
2023-05-21T10:41:02.673Z,63.32
2023-05-21T10:42:02.647Z,63.75
2023-05-21T10:43:02.687Z,63.32
2023-05-21T10:44:02.615Z,63.32
2023-05-21T10:45:02.640Z,63.09
2023-05-21T10:46:02.644Z,62.89
2023-05-21T10:47:02.639Z,63.02
2023-05-21T10:48:02.605Z,62.70
2023-05-21T10:49:02.642Z,61.99
2023-05-21T10:50:02.549Z,62.29
2023-05-21T10:51:02.568Z,61.96
2023-05-21T10:52:02.523Z,61.26
2023-05-21T10:53:02.544Z,62.09
2023-05-21T10:54:03.463Z,61.69
2023-05-21T10:55:02.519Z,62.89
2023-05-21T10:56:02.525Z,62.70
2023-05-21T10:57:02.524Z,61.36
2023-05-21T10:58:02.462Z,61.16
2023-05-21T10:59:02.478Z,61.26
2023-05-21T11:00:02.482Z,61.16
2023-05-21T11:01:02.526Z,61.57
2023-05-21T11:02:02.470Z,61.07
2023-05-21T11:03:02.513Z,60.93
2023-05-21T11:04:02.407Z,60.53
2023-05-21T11:05:02.424Z,60.91
2023-05-21T11:06:02.371Z,59.61
2023-05-21T11:07:02.429Z,59.70
2023-05-21T11:08:02.408Z,59.91
2023-05-21T11:09:02.392Z,60.11
2023-05-21T11:10:02.333Z,59.41
2023-05-21T11:11:02.366Z,59.61
2023-05-21T11:12:02.309Z,60.00
2023-05-21T11:13:02.318Z,61.10
2023-05-21T11:14:02.278Z,61.30
2023-05-21T11:15:02.343Z,61.00
2023-05-21T11:16:02.292Z,60.48
2023-05-21T11:17:02.390Z,60.17
2023-05-21T11:18:02.269Z,59.98
2023-05-21T11:19:02.336Z,59.85
2023-05-21T11:20:02.287Z,59.35
2023-05-21T11:21:02.272Z,59.35
2023-05-21T11:22:02.190Z,60.38
2023-05-21T11:23:02.213Z,60.38
2023-05-21T11:24:02.191Z,59.68
2023-05-21T11:25:02.214Z,60.17
2023-05-21T11:26:02.213Z,60.08
2023-05-21T11:27:02.173Z,60.17
2023-05-21T11:28:02.159Z,60.28
2023-05-21T11:29:02.150Z,60.78
2023-05-21T11:30:02.113Z,60.48
2023-05-21T11:31:02.135Z,60.58
2023-05-21T11:32:02.091Z,60.17
2023-05-21T11:33:02.165Z,59.98
2023-05-21T11:34:02.075Z,61.08
2023-05-21T11:35:02.091Z,60.85
2023-05-21T11:36:02.061Z,59.85
2023-05-21T11:37:02.060Z,59.38
2023-05-21T11:38:02.076Z,59.78
2023-05-21T11:39:02.043Z,59.88
2023-05-21T11:40:02.012Z,60.38
2023-05-21T11:41:02.060Z,60.28
2023-05-21T11:42:04.322Z,60.45
2023-05-21T11:43:02.008Z,61.25
2023-05-21T11:44:02.006Z,59.15
2023-05-21T11:45:01.978Z,59.52
2023-05-21T11:46:02.023Z,59.42
2023-05-21T11:47:02.006Z,60.29
2023-05-21T11:48:02.076Z,57.30
2023-05-21T11:49:01.951Z,57.28
2023-05-21T11:50:01.906Z,57.28
2023-05-21T11:51:01.960Z,56.38
2023-05-21T11:52:01.885Z,57.57
2023-05-21T11:53:01.964Z,56.08
2023-05-21T11:54:01.899Z,56.27
2023-05-21T11:55:01.871Z,56.51
2023-05-21T11:56:01.850Z,56.81
2023-05-21T11:57:01.854Z,56.57
2023-05-21T11:58:01.844Z,57.28
2023-05-21T11:59:01.843Z,57.28
2023-05-21T12:00:01.883Z,57.57
2023-05-21T12:01:08.544Z,56.27
2023-05-21T12:02:01.781Z,56.30
2023-05-21T12:03:01.939Z,56.51
2023-05-21T12:04:01.888Z,57.07
2023-05-21T12:05:01.774Z,56.08
2023-05-21T12:06:01.809Z,57.54
2023-05-21T12:07:01.759Z,55.35
2023-05-21T12:08:01.718Z,55.98
2023-05-21T12:09:01.732Z,56.18
2023-05-21T12:10:01.688Z,56.98
2023-05-21T12:11:01.773Z,56.48
2023-05-21T12:12:01.697Z,55.76
2023-05-21T12:13:01.694Z,55.13
2023-05-21T12:14:01.702Z,54.71
2023-05-21T12:15:01.667Z,54.21
2023-05-21T12:16:01.679Z,53.56
2023-05-21T12:17:01.714Z,52.96
2023-05-21T12:18:01.710Z,53.69
2023-05-21T12:19:01.648Z,54.11
2023-05-21T12:20:01.598Z,54.60
2023-05-21T12:21:01.633Z,54.80
2023-05-21T12:22:01.605Z,54.60
2023-05-21T12:23:01.588Z,54.90
2023-05-21T12:24:01.575Z,53.61
2023-05-21T12:25:01.542Z,54.58
2023-05-21T12:26:01.594Z,53.19
2023-05-21T12:27:01.518Z,52.89
2023-05-21T12:28:01.567Z,53.78
2023-05-21T12:29:01.526Z,53.39
2023-05-21T12:30:01.522Z,53.46
2023-05-21T12:31:01.480Z,53.86
2023-05-21T12:32:01.600Z,53.46
2023-05-21T12:33:01.505Z,53.26
2023-05-21T12:34:01.497Z,53.46
2023-05-21T12:35:01.471Z,53.63
2023-05-21T12:36:01.557Z,52.34
2023-05-21T12:37:01.494Z,51.97
2023-05-21T12:38:01.430Z,52.17
2023-05-21T12:39:01.386Z,52.37
2023-05-21T12:40:01.401Z,51.28
2023-05-21T12:41:01.429Z,51.60
2023-05-21T12:42:01.396Z,52.29
2023-05-21T12:43:01.533Z,53.76
2023-05-21T12:44:01.389Z,51.28
2023-05-21T12:45:01.343Z,51.67
2023-05-21T12:46:01.431Z,50.88
2023-05-21T12:47:01.310Z,52.32
2023-05-21T12:48:01.469Z,52.91
2023-05-21T12:49:01.349Z,53.28
2023-05-21T12:50:01.302Z,53.28
2023-05-21T12:51:01.299Z,52.56
2023-05-21T12:52:01.284Z,51.95